createdAt,value
2022-08-21T12:41:39.984Z,29.00
2022-08-21T12:44:14.965Z,29.20
2022-08-21T12:46:50.018Z,29.50
2022-08-21T12:49:36.292Z,29.70
2022-08-21T12:52:12.319Z,29.80
2022-08-21T12:54:42.680Z,29.80
2022-08-21T12:57:18.812Z,29.90
2022-08-21T12:59:45.867Z,30.00
2022-08-21T13:02:20.948Z,30.10
2022-08-21T13:04:50.033Z,30.20
2022-08-21T13:07:30.760Z,30.30
2022-08-21T13:10:17.555Z,30.30
2022-08-21T13:12:46.046Z,30.30
2022-08-21T13:15:14.738Z,30.40
2022-08-21T13:17:49.546Z,30.50
2022-08-21T13:20:25.282Z,30.50
2022-08-21T13:22:52.540Z,30.40
2022-08-21T13:25:21.885Z,30.50
2022-08-21T13:28:02.894Z,30.40
2022-08-21T13:30:31.107Z,30.60
2022-08-21T13:33:10.975Z,30.70
2022-08-21T13:36:01.321Z,30.90
2022-08-21T13:38:35.312Z,30.90
2022-08-21T13:41:12.606Z,30.90
2022-08-21T13:43:45.116Z,30.90
2022-08-21T13:46:14.178Z,30.80
2022-08-21T13:48:42.124Z,30.80
2022-08-21T13:51:10.506Z,30.80
2022-08-21T13:53:47.451Z,30.80
2022-08-21T13:56:27.292Z,30.90
2022-08-21T13:58:56.040Z,31.00
2022-08-21T14:01:50.468Z,31.00
2022-08-21T14:04:24.471Z,31.00
2022-08-21T14:06:52.233Z,30.80
2022-08-21T14:09:43.113Z,30.50
2022-08-21T14:12:23.601Z,30.50
2022-08-21T14:14:52.608Z,30.30
2022-08-21T14:17:34.068Z,30.10
2022-08-21T14:20:01.719Z,29.90
2022-08-21T14:22:44.346Z,29.70
2022-08-21T14:25:19.956Z,29.50
2022-08-21T14:28:14.572Z,29.30
2022-08-21T14:30:46.353Z,29.10
2022-08-21T14:33:24.651Z,28.90
2022-08-21T14:35:51.587Z,28.70
2022-08-21T14:38:21.739Z,28.60
2022-08-21T14:40:53.968Z,28.50
2022-08-21T14:43:21.568Z,28.40
2022-08-21T14:45:48.966Z,28.40
2022-08-21T14:48:15.734Z,28.20
2022-08-21T14:50:43.083Z,28.10
2022-08-21T14:53:11.396Z,28.10
2022-08-21T14:55:58.451Z,28.10
2022-08-21T14:58:26.468Z,28.10
2022-08-21T15:00:54.959Z,28.10
2022-08-21T15:03:25.630Z,28.00
2022-08-21T15:05:52.574Z,28.00
2022-08-21T15:08:19.655Z,27.80
2022-08-21T15:11:10.085Z,27.60
2022-08-21T15:13:34.863Z,27.50
2022-08-21T15:16:01.927Z,27.40
2022-08-21T15:18:30.657Z,27.40
2022-08-21T15:20:58.424Z,27.40
2022-08-21T15:23:25.318Z,27.50
2022-08-21T15:25:54.237Z,27.50
2022-08-21T15:28:22.197Z,27.40
2022-08-21T15:30:49.532Z,27.50
2022-08-21T15:33:17.478Z,27.40
2022-08-21T15:35:45.950Z,27.40
2022-08-21T15:38:13.524Z,27.60
2022-08-21T15:40:46.114Z,27.80
2022-08-21T15:43:31.934Z,27.90
2022-08-21T15:46:02.031Z,27.90
2022-08-21T15:48:29.593Z,27.90
2022-08-21T15:50:56.514Z,27.90
2022-08-21T15:53:23.710Z,27.90
2022-08-21T15:55:50.842Z,27.80
2022-08-21T15:58:20.860Z,27.80
2022-08-21T16:00:48.576Z,27.90
2022-08-21T16:03:17.930Z,27.90
2022-08-21T16:05:46.224Z,28.00
2022-08-21T16:08:13.412Z,28.00
2022-08-21T16:10:40.464Z,28.00
2022-08-21T16:13:14.218Z,28.00
2022-08-21T16:15:41.214Z,27.90
2022-08-21T16:18:10.889Z,27.80
2022-08-21T16:20:37.790Z,27.80
2022-08-21T16:23:04.666Z,27.70
2022-08-21T16:25:34.095Z,27.60
2022-08-21T16:28:02.729Z,27.70
2022-08-21T16:30:31.370Z,27.70
2022-08-21T16:33:01.700Z,27.60
2022-08-21T16:35:28.845Z,27.60
2022-08-21T16:37:55.792Z,27.50
2022-08-21T16:40:27.733Z,27.50
2022-08-21T16:42:55.783Z,27.40
2022-08-21T16:45:22.871Z,27.30
2022-08-21T16:47:51.199Z,27.20
2022-08-21T16:50:22.513Z,27.10
2022-08-21T16:52:50.881Z,27.10
2022-08-21T16:55:17.935Z,27.10
2022-08-21T16:57:44.900Z,27.10
2022-08-21T17:00:13.705Z,27.10
2022-08-21T17:02:50.876Z,26.90
2022-08-21T17:05:17.813Z,26.90
2022-08-21T17:07:45.568Z,26.70
2022-08-21T17:10:14.860Z,26.50
2022-08-21T17:12:44.354Z,26.50
2022-08-21T17:15:21.547Z,26.50
2022-08-21T17:17:49.780Z,26.50
2022-08-21T17:20:17.911Z,26.50
2022-08-21T17:22:44.965Z,26.50
2022-08-21T17:25:12.183Z,26.40
2022-08-21T17:27:40.433Z,26.40
2022-08-21T17:30:07.839Z,26.40
2022-08-21T17:32:34.811Z,26.40
2022-08-21T17:35:03.683Z,26.40
2022-08-21T17:37:30.693Z,26.30
2022-08-21T17:39:58.111Z,26.30
2022-08-21T17:42:25.317Z,26.20
2022-08-21T17:44:52.661Z,26.20
2022-08-21T17:47:19.697Z,26.10
2022-08-21T17:49:46.532Z,26.20
2022-08-21T17:52:13.519Z,26.20
2022-08-21T17:54:41.267Z,26.10
2022-08-21T17:57:13.092Z,26.00
2022-08-21T17:59:40.338Z,26.00
2022-08-21T18:02:09.737Z,26.10
2022-08-21T18:04:46.556Z,26.00
2022-08-21T18:07:31.906Z,25.90
2022-08-21T18:10:01.152Z,25.90
2022-08-21T18:12:28.958Z,25.80
2022-08-21T18:14:55.951Z,25.70
2022-08-21T18:17:24.392Z,25.70
2022-08-21T18:19:51.353Z,25.70
2022-08-21T18:22:18.457Z,25.70
2022-08-21T18:24:46.278Z,25.70
2022-08-21T18:27:15.043Z,25.70
2022-08-21T18:29:44.479Z,25.70
2022-08-21T18:32:31.365Z,25.70
2022-08-21T18:35:04.021Z,25.60
2022-08-21T18:37:31.283Z,25.60
2022-08-21T18:39:59.345Z,25.60
2022-08-21T18:42:28.380Z,25.50
2022-08-21T18:45:02.161Z,25.40
2022-08-21T18:47:35.335Z,25.30
2022-08-21T18:50:02.416Z,25.30
2022-08-21T18:52:29.635Z,25.30
2022-08-21T18:54:56.410Z,25.20
2022-08-21T18:57:28.193Z,25.20
2022-08-21T18:59:55.194Z,25.20
2022-08-21T19:02:22.701Z,25.20
2022-08-21T19:04:51.598Z,25.20
2022-08-21T19:07:20.021Z,25.20
2022-08-21T19:10:07.686Z,25.20
2022-08-21T19:12:35.818Z,25.20
2022-08-21T19:15:04.061Z,25.20
2022-08-21T19:17:31.447Z,25.10
2022-08-21T19:20:03.527Z,25.10
2022-08-21T19:22:31.066Z,25.00
2022-08-21T19:24:58.051Z,25.00
2022-08-21T19:27:25.132Z,25.00
2022-08-21T19:29:53.204Z,24.90
2022-08-21T19:32:20.359Z,24.90
2022-08-21T19:34:49.926Z,24.80
2022-08-21T19:37:19.625Z,24.80
2022-08-21T19:39:50.093Z,24.70
2022-08-21T19:42:21.583Z,24.80
2022-08-21T19:44:50.916Z,24.80
2022-08-21T19:47:21.245Z,24.80
2022-08-21T19:50:00.396Z,24.80
2022-08-21T19:52:35.627Z,24.70
2022-08-21T19:55:03.951Z,24.70
2022-08-21T19:57:33.118Z,24.70
2022-08-21T20:00:00.822Z,24.70
2022-08-21T20:02:35.762Z,24.60
2022-08-21T20:05:03.739Z,24.60
2022-08-21T20:07:30.796Z,24.50
2022-08-21T20:09:59.314Z,24.50
2022-08-21T20:12:26.655Z,24.50
2022-08-21T20:14:53.903Z,24.50
2022-08-21T20:17:21.254Z,24.50
2022-08-21T20:19:53.946Z,24.50
2022-08-21T20:22:22.502Z,24.50
2022-08-21T20:24:51.680Z,24.50
2022-08-21T20:27:27.400Z,24.60
2022-08-21T20:29:55.367Z,24.60
2022-08-21T20:32:22.807Z,24.60
2022-08-21T20:34:51.993Z,24.50
2022-08-21T20:37:35.639Z,24.60
2022-08-21T20:40:11.960Z,24.50
2022-08-21T20:42:40.900Z,24.50
2022-08-21T20:45:11.926Z,24.50
2022-08-21T20:47:39.233Z,24.50
2022-08-21T20:53:05.568Z,24.40
2022-08-21T20:55:35.453Z,24.40
2022-08-21T20:58:09.267Z,24.50
2022-08-21T21:00:45.951Z,24.50
2022-08-21T21:03:30.285Z,24.50
2022-08-21T21:06:25.572Z,24.50
2022-08-21T21:08:56.576Z,24.50
2022-08-21T21:11:38.460Z,24.50
2022-08-21T21:14:16.950Z,24.50
2022-08-21T21:17:06.181Z,24.50
2022-08-21T21:19:47.797Z,24.50
2022-08-21T21:22:21.891Z,24.50
2022-08-21T21:25:10.953Z,24.50
2022-08-21T21:27:42.749Z,24.50
2022-08-21T21:30:29.210Z,24.40
2022-08-21T21:32:56.540Z,24.40
2022-08-21T21:35:33.127Z,24.40
2022-08-21T21:38:19.585Z,24.40
2022-08-21T21:41:25.012Z,24.40
2022-08-21T21:44:10.252Z,24.30
2022-08-21T21:46:51.994Z,24.30
2022-08-21T21:49:40.188Z,24.30
2022-08-21T21:52:22.170Z,24.20
2022-08-21T21:55:40.392Z,24.20
2022-08-21T21:58:50.189Z,24.10
2022-08-21T22:01:29.183Z,24.10
2022-08-21T22:04:21.313Z,24.10
2022-08-21T22:07:12.953Z,24.10
2022-08-21T22:10:20.020Z,24.10
2022-08-21T22:13:26.336Z,24.10
2022-08-21T22:15:54.533Z,24.10
2022-08-21T22:18:29.471Z,24.00
2022-08-21T22:21:02.834Z,24.00
2022-08-21T22:23:40.543Z,24.00
2022-08-21T22:26:13.077Z,23.90
2022-08-21T22:28:42.710Z,23.90
2022-08-21T22:31:29.936Z,23.90
2022-08-21T22:37:11.348Z,23.90
2022-08-21T22:39:43.338Z,23.90
2022-08-21T22:42:21.005Z,23.90
2022-08-21T22:44:51.853Z,23.90
2022-08-21T22:47:33.447Z,23.90
2022-08-21T22:50:05.572Z,23.90
2022-08-21T22:52:35.727Z,23.90
2022-08-21T22:55:43.785Z,23.90
2022-08-21T22:58:30.422Z,23.80
2022-08-21T23:01:21.491Z,23.80
2022-08-21T23:03:54.398Z,23.70
2022-08-21T23:06:39.980Z,23.70
2022-08-21T23:09:20.147Z,23.70
2022-08-21T23:11:50.976Z,23.60
2022-08-21T23:14:18.651Z,23.60
2022-08-21T23:17:18.436Z,23.50
2022-08-21T23:20:03.002Z,23.50
2022-08-21T23:23:00.464Z,23.40
2022-08-21T23:25:51.125Z,23.40
2022-08-21T23:28:31.674Z,23.30
2022-08-21T23:31:18.805Z,23.30
2022-08-21T23:34:05.944Z,23.20
2022-08-21T23:37:06.677Z,23.20
2022-08-21T23:39:57.406Z,23.20
2022-08-21T23:42:45.772Z,23.10
2022-08-21T23:45:50.536Z,23.10
2022-08-21T23:48:29.534Z,23.10
2022-08-21T23:51:11.888Z,23.10
2022-08-21T23:54:02.356Z,23.10
